createdAt,value
2018-02-01T00:00:26.994Z,7.80
2018-02-01T00:02:55.944Z,7.70
2018-02-01T00:05:24.315Z,7.70
2018-02-01T00:07:52.710Z,7.60
2018-02-01T00:10:21.150Z,7.60
2018-02-01T00:12:49.631Z,7.70
2018-02-01T00:15:18.191Z,7.60
2018-02-01T00:17:46.833Z,7.60
2018-02-01T00:20:15.213Z,7.60
2018-02-01T00:22:42.917Z,7.60
2018-02-01T00:25:11.293Z,7.50
2018-02-01T00:27:39.669Z,7.50
2018-02-01T00:30:08.071Z,7.50
2018-02-01T00:32:37.729Z,7.50
2018-02-01T00:35:06.431Z,7.60
2018-02-01T00:37:35.468Z,7.60
2018-02-01T00:40:05.051Z,7.60
2018-02-01T00:42:33.467Z,7.60
2018-02-01T00:45:03.177Z,7.60
2018-02-01T00:47:32.543Z,7.60
2018-02-01T00:50:01.561Z,7.60
2018-02-01T00:52:30.923Z,7.60
2018-02-01T00:54:59.533Z,7.60
2018-02-01T00:57:27.693Z,7.60
2018-02-01T00:59:56.102Z,7.50
2018-02-01T01:02:24.638Z,7.60
2018-02-01T01:04:55.238Z,7.50
2018-02-01T01:07:23.897Z,7.50
2018-02-01T01:09:51.933Z,7.40
2018-02-01T01:12:21.346Z,7.50
2018-02-01T01:14:49.880Z,7.50
2018-02-01T01:17:18.539Z,7.50
2018-02-01T01:19:47.170Z,7.50
2018-02-01T01:22:15.649Z,7.50
2018-02-01T01:24:44.028Z,7.40
2018-02-01T01:27:12.680Z,7.40
2018-02-01T01:29:41.174Z,7.40
2018-02-01T01:32:10.322Z,7.30
2018-02-01T01:34:38.702Z,7.30
2018-02-01T01:37:07.088Z,7.30
2018-02-01T01:39:35.467Z,7.30
2018-02-01T01:42:05.251Z,7.40
2018-02-01T01:44:33.719Z,7.30
2018-02-01T01:47:02.119Z,7.40
2018-02-01T01:49:30.561Z,7.40
2018-02-01T01:51:59.129Z,7.40
2018-02-01T01:54:28.350Z,7.30
2018-02-01T01:56:56.939Z,7.30
2018-02-01T01:59:25.310Z,7.30
2018-02-01T02:01:54.717Z,7.30
2018-02-01T02:04:23.098Z,7.30
2018-02-01T02:06:51.513Z,7.30
2018-02-01T02:09:20.965Z,7.30
2018-02-01T02:11:49.337Z,7.30
2018-02-01T02:14:18.669Z,7.30
2018-02-01T02:16:47.040Z,7.30
2018-02-01T02:19:15.083Z,7.30
2018-02-01T02:21:43.398Z,7.30
2018-02-01T02:24:11.770Z,7.30
2018-02-01T02:26:40.149Z,7.30
2018-02-01T02:29:09.558Z,7.20
2018-02-01T02:31:38.094Z,7.20
2018-02-01T02:34:06.146Z,7.20
2018-02-01T02:36:35.278Z,7.20
2018-02-01T02:39:03.338Z,7.10
2018-02-01T02:41:31.710Z,7.10
2018-02-01T02:44:00.645Z,7.10
2018-02-01T02:46:29.114Z,7.00
2018-02-01T02:48:58.802Z,7.00
2018-02-01T02:51:27.458Z,7.00
2018-02-01T02:53:56.105Z,7.00
2018-02-01T02:56:24.745Z,6.90
2018-02-01T02:58:53.253Z,6.90
2018-02-01T03:01:22.669Z,6.90
2018-02-01T03:03:51.036Z,6.90
2018-02-01T03:06:19.420Z,6.90
2018-02-01T03:08:48.049Z,6.90
2018-02-01T03:11:16.689Z,7.00
2018-02-01T03:13:45.065Z,6.90
2018-02-01T03:16:14.029Z,6.80
2018-02-01T03:18:42.392Z,6.80
2018-02-01T03:21:11.033Z,6.80
2018-02-01T03:23:39.676Z,6.80
2018-02-01T03:26:08.350Z,6.80
2018-02-01T03:28:37.793Z,6.70
2018-02-01T03:31:06.274Z,6.70
2018-02-01T03:33:35.549Z,6.70
2018-02-01T03:36:03.920Z,6.60
2018-02-01T03:38:33.333Z,6.60
2018-02-01T03:41:01.711Z,6.60
2018-02-01T03:43:31.129Z,6.60
2018-02-01T03:45:59.047Z,6.60
2018-02-01T03:48:27.678Z,6.70
2018-02-01T03:50:56.039Z,6.70
2018-02-01T03:53:25.006Z,6.70
2018-02-01T03:55:53.369Z,6.70
2018-02-01T03:58:22.822Z,6.70
2018-02-01T04:00:51.186Z,6.70
2018-02-01T04:03:19.578Z,6.70
2018-02-01T04:05:48.336Z,6.70
2018-02-01T04:08:16.714Z,6.70
2018-02-01T04:10:45.086Z,6.70
2018-02-01T04:13:13.794Z,6.70
2018-02-01T04:15:42.159Z,6.60
2018-02-01T04:18:09.922Z,6.60
2018-02-01T04:20:38.549Z,6.50
2018-02-01T04:23:07.614Z,6.50
2018-02-01T04:25:36.170Z,6.50
2018-02-01T04:28:05.452Z,6.50
2018-02-01T04:30:34.480Z,6.40
2018-02-01T04:33:02.993Z,6.40
2018-02-01T04:35:31.369Z,6.40
2018-02-01T04:37:59.913Z,6.40
2018-02-01T04:40:29.125Z,6.30
2018-02-01T04:42:57.762Z,6.30
2018-02-01T04:45:26.396Z,6.30
2018-02-01T04:47:54.832Z,6.30
2018-02-01T04:50:23.036Z,6.30
2018-02-01T04:52:51.420Z,6.30
2018-02-01T04:55:20.013Z,6.30
2018-02-01T04:57:50.123Z,6.20
2018-02-01T05:00:18.797Z,6.20
2018-02-01T05:02:47.172Z,6.20
2018-02-01T05:05:15.650Z,6.20
2018-02-01T05:07:44.558Z,6.10
2018-02-01T05:10:13.975Z,6.10
2018-02-01T05:12:42.730Z,6.10
2018-02-01T05:15:11.149Z,6.10
2018-02-01T05:17:40.422Z,6.00
2018-02-01T05:20:08.794Z,6.00
2018-02-01T05:22:37.162Z,6.00
2018-02-01T05:25:05.847Z,5.90
2018-02-01T05:27:34.250Z,5.90
2018-02-01T05:30:02.616Z,5.90
2018-02-01T05:32:31.126Z,5.90
2018-02-01T05:34:59.757Z,5.80
2018-02-01T05:37:28.134Z,5.80
2018-02-01T05:39:56.502Z,5.70
2018-02-01T05:42:24.054Z,5.70
2018-02-01T05:44:53.181Z,5.60
2018-02-01T05:47:21.559Z,5.50
2018-02-01T05:49:49.591Z,5.50
2018-02-01T05:52:18.237Z,5.50
2018-02-01T05:54:46.904Z,5.40
2018-02-01T05:57:15.425Z,5.40
2018-02-01T05:59:44.556Z,5.20
2018-02-01T06:02:13.885Z,5.20
2018-02-01T06:04:42.336Z,5.20
2018-02-01T06:07:10.723Z,5.20
2018-02-01T06:09:39.353Z,5.10
2018-02-01T06:12:07.728Z,5.10
2018-02-01T06:14:36.360Z,5.00
2018-02-01T06:17:05.504Z,5.00
2018-02-01T06:19:34.022Z,5.00
2018-02-01T06:22:02.662Z,4.90
2018-02-01T06:24:31.306Z,4.90
2018-02-01T06:26:59.838Z,4.80
2018-02-01T06:29:28.586Z,4.90
2018-02-01T06:31:56.949Z,4.90
2018-02-01T06:34:25.322Z,4.90
2018-02-01T06:36:53.701Z,4.90
2018-02-01T06:39:22.348Z,4.90
2018-02-01T06:41:50.722Z,4.90
2018-02-01T06:44:19.105Z,4.90
2018-02-01T06:46:47.473Z,4.90
2018-02-01T06:49:16.887Z,5.00
2018-02-01T06:51:45.617Z,4.90
2018-02-01T06:54:14.005Z,5.00
2018-02-01T06:56:42.873Z,4.70
2018-02-01T06:59:12.329Z,4.80
2018-02-01T07:01:41.553Z,4.80
2018-02-01T07:04:13.211Z,4.60
2018-02-01T07:06:42.037Z,4.60
2018-02-01T07:09:11.501Z,4.40
2018-02-01T07:11:40.303Z,4.40
2018-02-01T07:14:08.609Z,4.30
2018-02-01T07:16:39.192Z,4.30
2018-02-01T07:19:07.850Z,4.30
2018-02-01T07:21:36.225Z,4.30
2018-02-01T07:24:04.729Z,4.30
2018-02-01T07:26:33.869Z,4.20
2018-02-01T07:29:02.239Z,4.20
2018-02-01T07:31:30.665Z,4.30
2018-02-01T07:33:59.053Z,4.20
2018-02-01T07:36:27.529Z,4.20
2018-02-01T07:38:56.173Z,4.10
2018-02-01T07:41:25.585Z,4.10
2018-02-01T07:43:53.802Z,4.10
2018-02-01T07:46:24.161Z,4.10
2018-02-01T07:48:52.575Z,4.20
2018-02-01T07:51:20.977Z,4.20
2018-02-01T07:53:49.380Z,4.10
2018-02-01T07:56:18.524Z,4.10
2018-02-01T07:58:47.157Z,4.10
2018-02-01T08:01:16.355Z,4.10
2018-02-01T08:03:45.050Z,4.00
2018-02-01T08:06:13.498Z,4.00
2018-02-01T08:08:42.038Z,4.00
2018-02-01T08:11:10.422Z,4.00
2018-02-01T08:13:38.786Z,4.00
2018-02-01T08:16:07.866Z,4.00
2018-02-01T08:18:36.233Z,4.00
2018-02-01T08:21:04.627Z,4.00
2018-02-01T08:23:34.041Z,4.00
2018-02-01T08:26:02.417Z,4.00
2018-02-01T08:28:31.065Z,4.10
2018-02-01T08:30:59.707Z,4.10
2018-02-01T08:33:27.805Z,4.20
2018-02-01T08:35:56.944Z,4.10
2018-02-01T08:38:26.357Z,4.10
2018-02-01T08:40:54.819Z,4.10
2018-02-01T08:43:22.925Z,4.10
2018-02-01T08:45:51.106Z,4.10
2018-02-01T08:48:19.568Z,4.10
2018-02-01T08:50:48.209Z,4.10
2018-02-01T08:53:16.666Z,4.10
2018-02-01T08:55:45.038Z,4.20
2018-02-01T08:58:13.445Z,4.20
2018-02-01T09:00:42.066Z,4.10
2018-02-01T09:03:10.438Z,4.10
2018-02-01T09:05:39.136Z,4.00
2018-02-01T09:08:07.109Z,4.00
2018-02-01T09:10:35.750Z,3.90
2018-02-01T09:13:04.113Z,3.90
2018-02-01T09:15:32.753Z,3.80
2018-02-01T09:18:01.397Z,3.80
2018-02-01T09:20:30.241Z,3.80
2018-02-01T09:22:58.609Z,3.80
2018-02-01T09:25:27.297Z,3.80
2018-02-01T09:27:55.980Z,3.80
2018-02-01T09:30:24.597Z,3.80
2018-02-01T09:32:53.236Z,3.80
2018-02-01T09:35:21.749Z,3.80
2018-02-01T09:37:50.119Z,3.80
2018-02-01T09:40:18.514Z,3.70
2018-02-01T09:42:47.146Z,3.70
2018-02-01T09:45:16.562Z,3.60
2018-02-01T09:47:44.876Z,3.60
2018-02-01T09:50:13.442Z,3.60
2018-02-01T09:52:42.816Z,3.50
2018-02-01T09:55:11.250Z,3.50
2018-02-01T09:57:39.954Z,3.50
2018-02-01T10:00:08.090Z,3.50
2018-02-01T10:02:36.066Z,3.40
2018-02-01T10:05:04.890Z,3.50
2018-02-01T10:07:32.998Z,3.50
2018-02-01T10:10:02.297Z,3.50
2018-02-01T10:12:31.984Z,3.50
2018-02-01T10:15:00.355Z,3.50
2018-02-01T10:17:28.733Z,3.40
2018-02-01T10:19:57.331Z,3.40
2018-02-01T10:22:26.523Z,3.10
2018-02-01T10:24:55.170Z,2.80
2018-02-01T10:27:23.885Z,2.70
2018-02-01T10:29:53.689Z,2.50
2018-02-01T10:32:22.973Z,2.40
2018-02-01T10:34:52.923Z,2.30
2018-02-01T10:37:22.206Z,2.30
2018-02-01T10:39:50.577Z,2.30
2018-02-01T10:42:19.003Z,2.30
2018-02-01T10:44:47.615Z,2.30
2018-02-01T10:47:16.005Z,2.40
2018-02-01T10:49:44.381Z,2.30
2018-02-01T10:52:12.957Z,2.40
2018-02-01T10:54:41.606Z,2.40
2018-02-01T10:57:10.861Z,2.30
2018-02-01T10:59:40.265Z,2.40
2018-02-01T11:02:09.661Z,2.30
2018-02-01T11:04:38.041Z,2.30
2018-02-01T11:07:06.441Z,2.30
2018-02-01T11:09:35.793Z,2.20
2018-02-01T11:12:04.202Z,2.20
2018-02-01T11:14:33.654Z,2.30
2018-02-01T11:17:02.087Z,2.20
2018-02-01T11:19:30.663Z,2.20
2018-02-01T11:21:59.270Z,2.20
2018-02-01T11:24:27.693Z,2.10
2018-02-01T11:26:56.322Z,2.00
2018-02-01T11:29:24.893Z,2.00
2018-02-01T11:31:54.298Z,1.90
2018-02-01T11:34:23.706Z,1.80
2018-02-01T11:36:52.085Z,1.80
2018-02-01T11:39:20.767Z,1.70
2018-02-01T11:41:49.146Z,1.70
2018-02-01T11:44:17.518Z,1.60
2018-02-01T11:46:45.994Z,1.60
2018-02-01T11:49:14.367Z,1.60
2018-02-01T11:51:42.837Z,1.50
2018-02-01T11:54:11.201Z,1.40
2018-02-01T11:56:39.711Z,1.40
2018-02-01T11:59:08.197Z,1.40
2018-02-01T12:01:36.573Z,1.30
2018-02-01T12:04:04.953Z,1.40
2018-02-01T12:06:33.321Z,1.30
2018-02-01T12:09:01.791Z,1.30
2018-02-01T12:11:30.165Z,1.30
2018-02-01T12:13:58.539Z,1.30
2018-02-01T12:16:27.420Z,1.20
2018-02-01T12:18:56.188Z,1.20
2018-02-01T12:21:24.843Z,1.20
2018-02-01T12:23:53.278Z,1.20
2018-02-01T12:26:21.866Z,1.20
2018-02-01T12:28:51.084Z,1.20
2018-02-01T12:31:20.478Z,1.30
2018-02-01T12:33:49.907Z,1.30
2018-02-01T12:36:18.549Z,1.30
2018-02-01T12:38:47.070Z,1.30
2018-02-01T12:41:15.610Z,1.40
2018-02-01T12:43:44.306Z,1.40
2018-02-01T12:46:13.710Z,1.40
2018-02-01T12:48:42.090Z,1.40
2018-02-01T12:51:11.482Z,1.60
2018-02-01T12:53:39.866Z,1.50
2018-02-01T12:56:08.242Z,1.50
2018-02-01T12:58:37.658Z,1.50
2018-02-01T13:01:05.493Z,1.50
2018-02-01T13:03:33.877Z,1.40
2018-02-01T13:06:02.541Z,1.40
2018-02-01T13:08:31.682Z,1.40
2018-02-01T13:10:59.381Z,1.30
2018-02-01T13:13:27.945Z,1.30
2018-02-01T13:15:56.318Z,1.20
2018-02-01T13:18:24.985Z,1.10
2018-02-01T13:20:53.421Z,1.10
2018-02-01T13:23:23.081Z,1.10
2018-02-01T13:25:51.717Z,1.10
2018-02-01T13:28:20.519Z,1.10
2018-02-01T13:30:48.887Z,1.20
2018-02-01T13:33:17.259Z,1.30
2018-02-01T13:35:46.403Z,1.30
2018-02-01T13:38:14.794Z,1.30
2018-02-01T13:40:43.653Z,1.30
2018-02-01T13:43:12.215Z,1.40
2018-02-01T13:45:40.610Z,1.50
2018-02-01T13:48:09.003Z,1.50
2018-02-01T13:50:38.292Z,1.50
2018-02-01T13:53:06.658Z,1.50
2018-02-01T13:55:36.070Z,1.50
2018-02-01T13:58:04.734Z,1.50
2018-02-01T14:00:33.424Z,1.50
2018-02-01T14:03:01.802Z,1.40
2018-02-01T14:05:30.450Z,1.30
2018-02-01T14:07:59.804Z,1.20
2018-02-01T14:10:28.190Z,1.20
2018-02-01T14:12:56.718Z,1.20
2018-02-01T14:15:25.358Z,1.20
2018-02-01T14:17:54.839Z,1.20
2018-02-01T14:20:23.228Z,1.10
2018-02-01T14:22:51.598Z,1.20
2018-02-01T14:25:20.230Z,1.20
2018-02-01T14:27:48.600Z,1.20
2018-02-01T14:30:17.242Z,1.20
2018-02-01T14:32:46.953Z,1.30
2018-02-01T14:35:16.361Z,1.30
2018-02-01T14:37:44.741Z,1.30
2018-02-01T14:40:13.389Z,1.30
2018-02-01T14:42:41.843Z,1.40
2018-02-01T14:45:10.208Z,1.40
2018-02-01T14:47:38.857Z,1.50
2018-02-01T14:50:07.225Z,1.50
2018-02-01T14:52:35.617Z,1.50
2018-02-01T14:55:05.011Z,1.60
2018-02-01T14:57:33.389Z,1.50
2018-02-01T15:00:02.803Z,1.60
2018-02-01T15:02:32.221Z,1.60
2018-02-01T15:05:00.263Z,1.60
2018-02-01T15:07:28.638Z,1.60
2018-02-01T15:09:56.702Z,1.70
2018-02-01T15:12:25.290Z,1.70
2018-02-01T15:14:53.655Z,1.70
2018-02-01T15:17:22.302Z,1.60
2018-02-01T15:19:50.674Z,1.70
2018-02-01T15:22:18.402Z,1.60
2018-02-01T15:24:47.601Z,1.70
2018-02-01T15:27:16.270Z,1.60
2018-02-01T15:29:44.930Z,1.70
2018-02-01T15:32:13.368Z,1.70
2018-02-01T15:34:41.937Z,1.70
2018-02-01T15:37:10.618Z,1.70
2018-02-01T15:39:38.997Z,1.70
2018-02-01T15:42:07.661Z,1.60
2018-02-01T15:44:36.333Z,1.60
2018-02-01T15:47:04.701Z,1.50
2018-02-01T15:49:33.849Z,1.50
2018-02-01T15:52:02.165Z,1.50
2018-02-01T15:54:30.595Z,1.60
2018-02-01T15:56:59.053Z,1.60
2018-02-01T15:59:27.774Z,1.60
2018-02-01T16:01:56.161Z,1.70
2018-02-01T16:04:24.804Z,1.70
2018-02-01T16:06:53.388Z,1.70
2018-02-01T16:09:21.898Z,1.70
2018-02-01T16:11:50.261Z,1.70
2018-02-01T16:14:18.658Z,1.60
2018-02-01T16:16:48.008Z,1.60
2018-02-01T16:19:16.542Z,1.60
2018-02-01T16:21:45.177Z,1.60
2018-02-01T16:24:13.241Z,1.60
2018-02-01T16:26:41.618Z,1.60
2018-02-01T16:29:09.669Z,1.60
2018-02-01T16:31:38.805Z,1.50
2018-02-01T16:34:09.688Z,1.50
2018-02-01T16:36:38.833Z,1.40
2018-02-01T16:39:07.418Z,1.40
2018-02-01T16:41:36.822Z,1.50
2018-02-01T16:44:06.242Z,1.50
2018-02-01T16:46:35.661Z,1.60
2018-02-01T16:49:04.034Z,1.60
2018-02-01T16:51:32.678Z,1.60
2018-02-01T16:54:01.342Z,1.60
2018-02-01T16:56:29.730Z,1.50
2018-02-01T16:58:58.363Z,1.50
2018-02-01T17:01:26.749Z,1.50
2018-02-01T17:03:55.490Z,1.50
2018-02-01T17:06:23.953Z,1.50
2018-02-01T17:08:52.601Z,1.50
2018-02-01T17:11:20.985Z,1.50
2018-02-01T17:13:50.345Z,1.40
2018-02-01T17:16:18.855Z,1.40
2018-02-01T17:18:47.229Z,1.40
2018-02-01T17:21:15.624Z,1.40
2018-02-01T17:23:44.341Z,1.30
2018-02-01T17:26:13.812Z,1.40
2018-02-01T17:28:42.661Z,1.40
2018-02-01T17:31:11.052Z,1.40
2018-02-01T17:33:39.692Z,1.40
2018-02-01T17:36:08.844Z,1.30
2018-02-01T17:38:37.250Z,1.20
2018-02-01T17:41:06.694Z,1.20
2018-02-01T17:43:36.128Z,1.20
2018-02-01T17:46:04.506Z,1.20
2018-02-01T17:48:33.698Z,1.20
2018-02-01T17:51:02.346Z,1.20
2018-02-01T17:53:30.734Z,1.20
2018-02-01T17:56:00.275Z,1.30
2018-02-01T17:58:28.002Z,1.30
2018-02-01T18:00:56.482Z,1.30
2018-02-01T18:03:24.858Z,1.30
2018-02-01T18:05:53.222Z,1.30
2018-02-01T18:08:21.710Z,1.30
2018-02-01T18:10:50.077Z,1.30
2018-02-01T18:13:18.453Z,1.30
2018-02-01T18:15:46.749Z,1.30
2018-02-01T18:18:15.441Z,1.30
2018-02-01T18:20:44.845Z,1.30
2018-02-01T18:23:13.209Z,1.30
2018-02-01T18:25:42.625Z,1.40
2018-02-01T18:28:11.117Z,1.30
2018-02-01T18:30:39.763Z,1.40
2018-02-01T18:33:08.175Z,1.30
2018-02-01T18:35:36.549Z,1.30
2018-02-01T18:38:04.912Z,1.30
2018-02-01T18:40:33.306Z,1.40
2018-02-01T18:43:01.674Z,1.40
2018-02-01T18:45:30.370Z,1.30
2018-02-01T18:47:58.939Z,1.30
2018-02-01T18:50:28.262Z,1.20
2018-02-01T18:52:57.650Z,1.10
2018-02-01T18:55:26.309Z,1.10
2018-02-01T18:57:54.970Z,1.10
2018-02-01T19:00:23.518Z,1.00
2018-02-01T19:02:51.994Z,1.00
2018-02-01T19:05:20.378Z,0.90
2018-02-01T19:07:48.830Z,0.90
2018-02-01T19:10:17.293Z,0.90
2018-02-01T19:12:46.709Z,0.90
2018-02-01T19:15:16.128Z,0.90
2018-02-01T19:17:45.301Z,0.90
2018-02-01T19:20:13.669Z,0.80
2018-02-01T19:22:42.441Z,0.90
2018-02-01T19:25:10.812Z,0.90
2018-02-01T19:27:39.965Z,0.90
2018-02-01T19:30:08.340Z,1.00
2018-02-01T19:32:36.924Z,0.90
2018-02-01T19:35:06.419Z,1.00
2018-02-01T19:37:34.805Z,0.90
2018-02-01T19:40:02.530Z,1.00
2018-02-01T19:42:31.056Z,1.00
2018-02-01T19:44:59.549Z,1.00
2018-02-01T19:47:28.692Z,1.00
2018-02-01T19:49:57.260Z,0.90
2018-02-01T19:52:26.676Z,0.90
2018-02-01T19:54:56.246Z,1.00
2018-02-01T19:57:24.884Z,0.90
2018-02-01T19:59:53.280Z,1.00
2018-02-01T20:02:21.930Z,1.00
2018-02-01T20:04:51.344Z,1.10
2018-02-01T20:07:19.766Z,1.00
2018-02-01T20:09:48.382Z,1.00
2018-02-01T20:12:16.871Z,1.10
2018-02-01T20:14:45.300Z,1.10
2018-02-01T20:17:13.946Z,1.10
2018-02-01T20:19:43.365Z,1.00
2018-02-01T20:22:11.994Z,1.00
2018-02-01T20:24:41.164Z,1.10
2018-02-01T20:27:09.536Z,1.10
2018-02-01T20:29:38.221Z,1.10
2018-02-01T20:32:06.583Z,1.20
2018-02-01T20:34:34.834Z,1.20
2018-02-01T20:37:03.197Z,1.20
2018-02-01T20:39:31.837Z,1.20
2018-02-01T20:42:00.229Z,1.20
2018-02-01T20:44:28.889Z,1.20
2018-02-01T20:46:57.327Z,1.10
2018-02-01T20:49:25.968Z,1.10
2018-02-01T20:51:54.613Z,1.10
2018-02-01T20:54:24.039Z,1.00
2018-02-01T20:56:52.414Z,1.00
2018-02-01T20:59:22.024Z,1.10
2018-02-01T21:01:50.662Z,1.10
2018-02-01T21:04:19.043Z,1.10
2018-02-01T21:06:47.415Z,1.10
2018-02-01T21:09:16.070Z,1.10
2018-02-01T21:11:44.446Z,1.10
2018-02-01T21:14:13.114Z,1.10
2018-02-01T21:16:41.501Z,1.10
2018-02-01T21:19:09.870Z,1.20
2018-02-01T21:21:39.054Z,1.10
2018-02-01T21:24:07.418Z,1.10
2018-02-01T21:26:35.790Z,1.20
2018-02-01T21:29:05.194Z,1.20
2018-02-01T21:31:33.572Z,1.20
2018-02-01T21:34:01.950Z,1.20
2018-02-01T21:36:30.331Z,1.30
2018-02-01T21:38:59.838Z,1.30
2018-02-01T21:41:28.218Z,1.30
2018-02-01T21:43:56.853Z,1.30
2018-02-01T21:46:26.105Z,1.30
2018-02-01T21:48:54.478Z,1.30
2018-02-01T21:51:23.893Z,1.30
2018-02-01T21:53:52.193Z,1.30
2018-02-01T21:56:20.569Z,1.30
2018-02-01T21:58:49.201Z,1.30
2018-02-01T22:01:17.623Z,1.20
2018-02-01T22:03:45.984Z,1.20
2018-02-01T22:06:14.366Z,1.20
2018-02-01T22:08:42.740Z,1.20
2018-02-01T22:11:11.392Z,1.20
2018-02-01T22:13:40.799Z,1.20
2018-02-01T22:16:10.208Z,1.20
2018-02-01T22:18:38.586Z,1.20
2018-02-01T22:21:06.960Z,1.20
2018-02-01T22:23:36.372Z,1.20
2018-02-01T22:26:04.694Z,1.20
2018-02-01T22:28:33.151Z,1.30
2018-02-01T22:31:01.772Z,1.30
2018-02-01T22:33:30.458Z,1.20
2018-02-01T22:35:59.101Z,1.20
2018-02-01T22:38:27.574Z,1.30
2018-02-01T22:40:55.954Z,1.30
2018-02-01T22:43:24.337Z,1.30
2018-02-01T22:45:53.225Z,1.20
2018-02-01T22:48:21.713Z,1.20
2018-02-01T22:50:50.082Z,1.20
2018-02-01T22:53:18.461Z,1.20
2018-02-01T22:55:46.837Z,1.20
2018-02-01T22:58:15.225Z,1.20
2018-02-01T23:00:43.601Z,1.20
2018-02-01T23:03:11.985Z,1.20
2018-02-01T23:05:40.622Z,1.20
2018-02-01T23:08:10.033Z,1.20
2018-02-01T23:10:38.675Z,1.20
2018-02-01T23:13:07.801Z,1.20
2018-02-01T23:15:37.213Z,1.20
2018-02-01T23:18:06.625Z,1.20
2018-02-01T23:20:35.133Z,1.20
2018-02-01T23:23:03.747Z,1.20
2018-02-01T23:25:32.176Z,1.30
2018-02-01T23:28:00.544Z,1.20
2018-02-01T23:30:29.945Z,1.20
2018-02-01T23:32:58.311Z,1.20
2018-02-01T23:35:27.732Z,1.20
2018-02-01T23:37:56.106Z,1.20
2018-02-01T23:40:25.512Z,1.20
2018-02-01T23:42:54.160Z,1.20
2018-02-01T23:45:22.806Z,1.20
2018-02-01T23:47:52.156Z,1.20
2018-02-01T23:50:20.534Z,1.20
2018-02-01T23:52:49.938Z,1.20
2018-02-01T23:55:19.344Z,1.20
2018-02-01T23:57:47.718Z,1.20
